Terminal Aerodrome Forecast
Issued by NWS

Home | Current Version | Previous Version | Text Only | Print | Product List | Glossary On
Versions: 1 2 3 4 5 6 7 8 9 10 11 12
039
FTUS44 KTSA 261120
TAFFYV
TAF
KFYV 261120Z 2612/2712 19003KT P6SM SCT035 BKN120
     FM261500 16005KT P6SM VCSH BKN050
     FM261800 16005KT P6SM VCTS BKN040CB
     FM270000 15003KT P6SM FEW045 BKN150=

USA.gov is the U.S. government's official web portal to all federal, state and local government web resources and services.